Aérodrome :
LOGIN :

S'inscrire | Disclaimer

   EN    FR    IT 

 










Légende :    VFR   VFR Marginal   IFR   IFR Intensif   IFR Très Intensif
Visi : 
Plafond : 
>= 8 km
>= 3000ft
5 à 8 km
1000 à 3000 ft
1500m à 5 km
500 à 1000 ft
800 à 1500m
200 à 500 ft
< 800m
< 200 ft
Symboles :   Orages  Brouillard  Fortes neiges  Fortes précipitations  Vent > 20 kt
SIGMETs :   Divers  Orages  Givrage  Turbulence  Onde Orograph.  Cendres Volcan.






- Altitude de l'aérodrome : 863 ft
- Code IATA : ZAZ


LEZG - Zaragoza Aragon

DERNIER METAR :
  • 281400Z VRB02KT CAVOK 25/13 Q1019

METARs EXPIRÉS :
  • 281330Z 08003KT 030V120 CAVOK 25/13 Q1019
  • 281300Z 05005KT 020V120 CAVOK 25/14 Q1020
  • 281230Z 08006KT 030V130 CAVOK 24/14 Q1020
  • 281200Z 08004KT 030V120 CAVOK 23/13 Q1021
  • 281130Z 08004KT 350V120 CAVOK 22/13 Q1021

TAF TAF LEZG
Valide du 28 à 12h jusqu'au 29 à 12h UTC


281100Z 2812/2912 VRB04KT CAVOK TX28/2814Z TN15/2906Z
BECMG 2812/2813 10010KT
BECMG 2818/2821 29016KT



MET'MAP, la Météo Aéronautique d'un coup d'oeil ! - Copyright ORBIFLY Décembre 2007 - Disclaimer

ORBIFLY MET'MAP TEAM :

Programmation & Développement : Alexandra Zaïnal
Sur une idée originale de : Baudouin d'Aumeries
Assistance à la programmation : Marc-Olivier Méhu
Soutien technique & logistique : Manuel Goepfert

Contact : metmap@orbifly.com




SOURCES & CREDITS :

   NOAA